バーミンガム の空港の天気 - METARとTAF

バーミンガム国際空港 ( EGBB / BHX ) - イギリス バーミンガム
飛行場実況気象(Metar)
観測時間08/04 19:50 BST (08/04 18:50 UTC)
風向・風速南南西 5m/s 瞬間風速10m/s
視程10km以上
天気現象
全天の4割程度の雲 雲底高度 820m
全天の8割程度の雲 雲底高度 1250m
気温18℃
湿度68%
気圧1011hPa
METAREGBB 041850Z 20010G20KT 160V250 9999 SCT027 BKN041 18/12 Q1011
過去の天気等 Google飛行場航空写真 Wunderground天気予報

過去48時間のMETAR

飛行場予報(TAF)
発表時間: 8/04 17:57 BST (8/04 16:57 UTC)
予報対象時間: 4日19時 BST ~ 5日19時 BST
風向・風速南南西 6m/s
視程10km以上
全天の4割程度の雲 雲底高度 910m
4日19時 BST ~ 5日4時 BST に 確率 30% で一時的に
全天の8割程度の雲 雲底高度 430m
4日19時 BST ~ 5日19時 BST に 確率 30% で一時的に
風向・風速南南西 8m/s 瞬間風速 13m/s
5日16時 BST ~ 5日19時 BST に一時的に
視程7000m
天気現象
全天の8割程度の雲 雲底高度 430m
TAF EGBB 041657Z 0418/0518 21012KT 9999 SCT030
PROB30 TEMPO 0418/0503 BKN014
PROB30 TEMPO 0418/0518 21015G25KT
TEMPO 0515/0518 7000 RA BKN014